sensor_id;sensor_type;location;lat;lon;timestamp;pressure;altitude;pressure_sealevel;temperature;humidity
11692;BME280;33659;42.672;23.354;2023-10-13T00:00:56;68610.94;;;15.20;61.87
11692;BME280;33659;42.672;23.354;2023-10-13T00:03:24;68590.75;;;14.98;62.58
11692;BME280;33659;42.672;23.354;2023-10-13T00:05:57;68580.53;;;14.91;62.66
11692;BME280;33659;42.672;23.354;2023-10-13T00:08:28;68591.81;;;14.99;62.10
11692;BME280;33659;42.672;23.354;2023-10-13T00:10:55;68595.63;;;15.03;61.84
11692;BME280;33659;42.672;23.354;2023-10-13T00:13:26;68600.06;;;15.09;61.59
11692;BME280;33659;42.672;23.354;2023-10-13T00:15:53;68605.94;;;15.12;62.08
11692;BME280;33659;42.672;23.354;2023-10-13T00:18:26;68617.25;;;15.21;62.01
11692;BME280;33659;42.672;23.354;2023-10-13T00:20:58;68627.69;;;15.33;61.61
11692;BME280;33659;42.672;23.354;2023-10-13T00:23:25;68638.53;;;15.43;61.20
11692;BME280;33659;42.672;23.354;2023-10-13T00:25:53;68648.31;;;15.52;60.76
11692;BME280;33659;42.672;23.354;2023-10-13T00:28:28;68657.53;;;15.61;60.20
11692;BME280;33659;42.672;23.354;2023-10-13T00:31:08;68667.44;;;15.73;60.13
11692;BME280;33659;42.672;23.354;2023-10-13T00:33:39;68682.00;;;15.84;59.86
11692;BME280;33659;42.672;23.354;2023-10-13T00:36:07;68681.03;;;15.85;59.74
11692;BME280;33659;42.672;23.354;2023-10-13T00:38:34;68692.78;;;15.91;59.72
11692;BME280;33659;42.672;23.354;2023-10-13T00:41:02;68692.88;;;15.94;59.56
11692;BME280;33659;42.672;23.354;2023-10-13T00:43:44;68689.16;;;15.93;59.79
11692;BME280;33659;42.672;23.354;2023-10-13T00:46:11;68696.56;;;15.95;59.70
11692;BME280;33659;42.672;23.354;2023-10-13T00:48:42;68693.50;;;15.97;59.52
11692;BME280;33659;42.672;23.354;2023-10-13T00:51:17;68704.72;;;16.03;59.45
11692;BME280;33659;42.672;23.354;2023-10-13T00:53:57;68709.59;;;16.07;59.32
11692;BME280;33659;42.672;23.354;2023-10-13T00:56:24;68696.78;;;16.00;59.51
11692;BME280;33659;42.672;23.354;2023-10-13T00:58:53;68697.31;;;16.01;59.29
11692;BME280;33659;42.672;23.354;2023-10-13T01:01:22;68705.91;;;16.06;59.26
11692;BME280;33659;42.672;23.354;2023-10-13T01:03:56;68709.16;;;16.09;59.36
11692;BME280;33659;42.672;23.354;2023-10-13T01:06:25;68703.75;;;16.04;59.45
11692;BME280;33659;42.672;23.354;2023-10-13T01:08:57;68703.75;;;16.04;59.25
11692;BME280;33659;42.672;23.354;2023-10-13T01:11:23;68694.50;;;15.95;59.39
11692;BME280;33659;42.672;23.354;2023-10-13T01:13:50;68692.88;;;15.94;59.39
11692;BME280;33659;42.672;23.354;2023-10-13T01:16:17;68683.63;;;15.85;59.44
11692;BME280;33659;42.672;23.354;2023-10-13T01:18:46;68678.75;;;15.81;59.77
11692;BME280;33659;42.672;23.354;2023-10-13T01:21:15;68678.84;;;15.83;59.65
11692;BME280;33659;42.672;23.354;2023-10-13T01:23:47;68684.06;;;15.83;59.30
11692;BME280;33659;42.672;23.354;2023-10-13T01:26:13;68666.91;;;15.72;59.72
11692;BME280;33659;42.672;23.354;2023-10-13T01:28:47;68668.97;;;15.72;59.94
11692;BME280;33659;42.672;23.354;2023-10-13T01:31:13;68662.00;;;15.67;60.07
11692;BME280;33659;42.672;23.354;2023-10-13T01:33:51;68660.94;;;15.66;60.14
11692;BME280;33659;42.672;23.354;2023-10-13T01:36:21;68660.94;;;15.66;60.16
11692;BME280;33659;42.672;23.354;2023-10-13T01:38:48;68662.44;;;15.65;59.68
11692;BME280;33659;42.672;23.354;2023-10-13T01:41:15;68609.31;;;15.18;60.40
11692;BME280;33659;42.672;23.354;2023-10-13T01:43:41;68625.50;;;15.31;60.32
11692;BME280;33659;42.672;23.354;2023-10-13T01:46:09;68647.88;;;15.54;60.40
11692;BME280;33659;42.672;23.354;2023-10-13T01:48:35;68652.19;;;15.58;60.31
11692;BME280;33659;42.672;23.354;2023-10-13T01:51:04;68646.34;;;15.55;60.17
11692;BME280;33659;42.672;23.354;2023-10-13T01:53:33;68639.19;;;15.46;60.46
11692;BME280;33659;42.672;23.354;2023-10-13T01:56:03;68646.78;;;15.53;60.35
11692;BME280;33659;42.672;23.354;2023-10-13T01:58:36;68646.13;;;15.50;60.50
11692;BME280;33659;42.672;23.354;2023-10-13T02:01:02;68645.69;;;15.52;60.36
11692;BME280;33659;42.672;23.354;2023-10-13T02:03:33;68638.53;;;15.43;60.47
11692;BME280;33659;42.672;23.354;2023-10-13T02:05:58;68601.59;;;15.08;60.88
11692;BME280;33659;42.672;23.354;2023-10-13T02:08:30;68610.28;;;15.16;61.45
11692;BME280;33659;42.672;23.354;2023-10-13T02:10:57;68613.00;;;15.19;61.45
11692;BME280;33659;42.672;23.354;2023-10-13T02:13:27;68617.88;;;15.24;61.29
11692;BME280;33659;42.672;23.354;2023-10-13T02:15:56;68614.09;;;15.20;61.45
11692;BME280;33659;42.672;23.354;2023-10-13T02:18:27;68615.19;;;15.21;61.37
11692;BME280;33659;42.672;23.354;2023-10-13T02:20:53;68616.91;;;15.25;61.23
11692;BME280;33659;42.672;23.354;2023-10-13T02:23:29;68611.38;;;15.17;61.39
11692;BME280;33659;42.672;23.354;2023-10-13T02:25:55;68617.44;;;15.26;61.31
11692;BME280;33659;42.672;23.354;2023-10-13T02:28:27;68619.09;;;15.27;61.36
11692;BME280;33659;42.672;23.354;2023-10-13T02:31:01;68608.75;;;15.17;61.43
11692;BME280;33659;42.672;23.354;2023-10-13T02:33:28;68613.00;;;15.19;61.57
11692;BME280;33659;42.672;23.354;2023-10-13T02:35:55;68609.19;;;15.15;61.62
11692;BME280;33659;42.672;23.354;2023-10-13T02:38:23;68605.41;;;15.12;61.79
11692;BME280;33659;42.672;23.354;2023-10-13T02:40:59;68614.63;;;15.21;61.51
11692;BME280;33659;42.672;23.354;2023-10-13T02:43:33;68617.88;;;15.24;61.48
11692;BME280;33659;42.672;23.354;2023-10-13T02:45:59;68613.53;;;15.20;61.52
11692;BME280;33659;42.672;23.354;2023-10-13T02:48:27;68610.81;;;15.17;61.54
11692;BME280;33659;42.672;23.354;2023-10-13T02:50:57;68608.66;;;15.15;61.57
11692;BME280;33659;42.672;23.354;2023-10-13T02:53:28;68608.13;;;15.14;61.59
11692;BME280;33659;42.672;23.354;2023-10-13T02:55:55;68579.88;;;14.88;61.53
11692;BME280;33659;42.672;23.354;2023-10-13T02:58:24;68583.78;;;14.94;61.74
11692;BME280;33659;42.672;23.354;2023-10-13T03:01:06;68594.00;;;15.01;61.68
11692;BME280;33659;42.672;23.354;2023-10-13T03:03:43;68589.22;;;14.99;61.67
11692;BME280;33659;42.672;23.354;2023-10-13T03:06:10;68598.78;;;15.03;61.44
11692;BME280;33659;42.672;23.354;2023-10-13T03:08:37;68583.22;;;14.94;61.74
11692;BME280;33659;42.672;23.354;2023-10-13T03:11:04;68584.22;;;14.92;61.68
11692;BME280;33659;42.672;23.354;2023-10-13T03:13:30;68551.75;;;14.64;61.34
11692;BME280;33659;42.672;23.354;2023-10-13T03:15:58;68577.69;;;14.86;61.31
11692;BME280;33659;42.672;23.354;2023-10-13T03:18:25;68575.00;;;14.83;60.97
11692;BME280;33659;42.672;23.354;2023-10-13T03:20:59;68572.28;;;14.81;61.07
11692;BME280;33659;42.672;23.354;2023-10-13T03:23:27;68573.47;;;14.84;60.80
11692;BME280;33659;42.672;23.354;2023-10-13T03:25:55;68579.44;;;14.90;60.72
11692;BME280;33659;42.672;23.354;2023-10-13T03:28:22;68575.09;;;14.86;60.73
11692;BME280;33659;42.672;23.354;2023-10-13T03:30:59;68560.34;;;14.70;60.88
11692;BME280;33659;42.672;23.354;2023-10-13T03:33:28;68580.53;;;14.91;60.94
11692;BME280;33659;42.672;23.354;2023-10-13T03:35:58;68572.38;;;14.83;60.94
11692;BME280;33659;42.672;23.354;2023-10-13T03:38:31;68575.09;;;14.86;61.04
11692;BME280;33659;42.672;23.354;2023-10-13T03:41:02;68566.31;;;14.75;60.96
11692;BME280;33659;42.672;23.354;2023-10-13T03:43:37;68578.91;;;14.89;60.93
11692;BME280;33659;42.672;23.354;2023-10-13T03:46:16;68565.75;;;14.75;60.99
11692;BME280;33659;42.672;23.354;2023-10-13T03:48:48;68545.69;;;14.56;61.75
11692;BME280;33659;42.672;23.354;2023-10-13T03:51:25;68520.78;;;14.35;62.55
11692;BME280;33659;42.672;23.354;2023-10-13T03:53:56;68499.63;;;14.15;63.30
11692;BME280;33659;42.672;23.354;2023-10-13T03:56:25;68469.16;;;13.84;64.40
11692;BME280;33659;42.672;23.354;2023-10-13T03:58:53;68436.16;;;13.55;65.26
11692;BME280;33659;42.672;23.354;2023-10-13T04:01:23;68419.91;;;13.40;65.99
11692;BME280;33659;42.672;23.354;2023-10-13T04:03:58;68416.00;;;13.34;66.40
11692;BME280;33659;42.672;23.354;2023-10-13T04:06:34;68414.47;;;13.35;66.48
11692;BME280;33659;42.672;23.354;2023-10-13T04:09:25;68417.72;;;13.38;66.37
11692;BME280;33659;42.672;23.354;2023-10-13T04:12:08;68433.34;;;13.50;66.26
11692;BME280;33659;42.672;23.354;2023-10-13T04:15:08;68447.03;;;13.66;65.81
11692;BME280;33659;42.672;23.354;2023-10-13T04:17:43;68456.34;;;13.77;65.34
11692;BME280;33659;42.672;23.354;2023-10-13T04:20:12;68475.13;;;13.90;65.03
11692;BME280;33659;42.672;23.354;2023-10-13T04:22:52;68483.38;;;14.00;64.68
11692;BME280;33659;42.672;23.354;2023-10-13T04:25:36;68499.09;;;14.15;64.20
11692;BME280;33659;42.672;23.354;2023-10-13T04:28:17;68503.44;;;14.19;63.95
11692;BME280;33659;42.672;23.354;2023-10-13T04:31:00;68514.28;;;14.29;63.44
11692;BME280;33659;42.672;23.354;2023-10-13T04:33:37;68518.53;;;14.30;63.35
11692;BME280;33659;42.672;23.354;2023-10-13T04:36:19;68520.16;;;14.32;63.30
11692;BME280;33659;42.672;23.354;2023-10-13T04:39:10;68514.81;;;14.29;63.54
11692;BME280;33659;42.672;23.354;2023-10-13T04:41:40;68515.81;;;14.28;63.08
11692;BME280;33659;42.672;23.354;2023-10-13T04:44:08;68508.34;;;14.23;63.40
11692;BME280;33659;42.672;23.354;2023-10-13T04:46:58;68509.28;;;14.22;63.36
11692;BME280;33659;42.672;23.354;2023-10-13T04:49:40;68506.16;;;14.21;63.23
11692;BME280;33659;42.672;23.354;2023-10-13T04:52:18;68488.78;;;14.05;62.75
11692;BME280;33659;42.672;23.354;2023-10-13T04:55:03;68496.28;;;14.09;62.92
11692;BME280;33659;42.672;23.354;2023-10-13T04:57:42;68487.72;;;14.04;63.22
11692;BME280;33659;42.672;23.354;2023-10-13T05:00:13;68489.44;;;14.08;63.34
11692;BME280;33659;42.672;23.354;2023-10-13T05:02:58;68487.59;;;14.01;63.47
11692;BME280;33659;42.672;23.354;2023-10-13T05:05:43;68496.94;;;14.13;63.23
11692;BME280;33659;42.672;23.354;2023-10-13T05:08:34;68512.56;;;14.25;63.03
11692;BME280;33659;42.672;23.354;2023-10-13T05:11:18;68519.72;;;14.34;63.90
11692;BME280;33659;42.672;23.354;2023-10-13T05:14:02;68528.38;;;14.42;63.25
11692;BME280;33659;42.672;23.354;2023-10-13T05:16:46;68544.50;;;14.52;63.08
11692;BME280;33659;42.672;23.354;2023-10-13T05:19:30;68546.31;;;14.59;62.26
11692;BME280;33659;42.672;23.354;2023-10-13T05:22:14;68553.16;;;14.60;61.91
11692;BME280;33659;42.672;23.354;2023-10-13T05:24:59;68555.56;;;14.68;62.02
11692;BME280;33659;42.672;23.354;2023-10-13T05:27:44;68566.84;;;14.76;61.68
11692;BME280;33659;42.672;23.354;2023-10-13T05:30:27;68560.88;;;14.70;62.19
11692;BME280;33659;42.672;23.354;2023-10-13T05:33:11;68565.34;;;14.77;62.09
11692;BME280;33659;42.672;23.354;2023-10-13T05:35:55;68578.16;;;14.84;62.24
11692;BME280;33659;42.672;23.354;2023-10-13T05:38:39;68588.03;;;14.96;62.01
11692;BME280;33659;42.672;23.354;2023-10-13T05:41:24;68591.94;;;15.02;61.86
11692;BME280;33659;42.672;23.354;2023-10-13T05:44:09;68602.25;;;15.11;61.08
11692;BME280;33659;42.672;23.354;2023-10-13T05:47:07;68592.47;;;15.02;61.21
11692;BME280;33659;42.672;23.354;2023-10-13T05:49:51;68583.78;;;14.94;61.81
11692;BME280;33659;42.672;23.354;2023-10-13T05:52:30;68591.41;;;15.01;61.59
11692;BME280;33659;42.672;23.354;2023-10-13T05:55:29;68609.19;;;15.15;61.42
11692;BME280;33659;42.672;23.354;2023-10-13T05:58:15;68599.41;;;15.06;61.15
11692;BME280;33659;42.672;23.354;2023-10-13T06:01:00;68579.88;;;14.88;61.86
11692;BME280;33659;42.672;23.354;2023-10-13T06:03:44;68575.00;;;14.83;62.25
11692;BME280;33659;42.672;23.354;2023-10-13T06:06:28;68574.47;;;14.83;62.67
11692;BME280;33659;42.672;23.354;2023-10-13T06:09:24;68588.13;;;14.98;62.60
11692;BME280;33659;42.672;23.354;2023-10-13T06:12:08;68609.19;;;15.15;62.31
11692;BME280;33659;42.672;23.354;2023-10-13T06:14:54;68626.16;;;15.34;61.58
11692;BME280;33659;42.672;23.354;2023-10-13T06:17:38;68639.72;;;15.47;61.35
11692;BME280;33659;42.672;23.354;2023-10-13T06:20:39;68657.00;;;15.60;61.07
11692;BME280;33659;42.672;23.354;2023-10-13T06:23:23;68661.91;;;15.65;60.65
11692;BME280;33659;42.672;23.354;2023-10-13T06:26:06;68671.78;;;15.77;60.22
11692;BME280;33659;42.672;23.354;2023-10-13T06:28:51;68681.56;;;15.86;59.86
11692;BME280;33659;42.672;23.354;2023-10-13T06:31:19;68692.31;;;15.93;59.99
11692;BME280;33659;42.672;23.354;2023-10-13T06:33:51;68705.38;;;16.06;59.46
11692;BME280;33659;42.672;23.354;2023-10-13T06:36:21;68714.06;;;16.14;59.27
11692;BME280;33659;42.672;23.354;2023-10-13T06:38:48;68719.59;;;16.21;59.21
11692;BME280;33659;42.672;23.354;2023-10-13T06:41:20;68726.56;;;16.25;58.68
11692;BME280;33659;42.672;23.354;2023-10-13T06:43:56;68732.09;;;16.33;58.65
11692;BME280;33659;42.672;23.354;2023-10-13T06:46:30;68742.44;;;16.43;58.33
11692;BME280;33659;42.672;23.354;2023-10-13T06:48:59;68752.66;;;16.50;58.32
11692;BME280;33659;42.672;23.354;2023-10-13T06:51:28;68750.03;;;16.50;58.00
11692;BME280;33659;42.672;23.354;2023-10-13T06:54:04;68748.84;;;16.46;58.59
11692;BME280;33659;42.672;23.354;2023-10-13T06:56:35;68748.28;;;16.46;58.42
11692;BME280;33659;42.672;23.354;2023-10-13T06:59:05;68757.97;;;16.52;58.53
11692;BME280;33659;42.672;23.354;2023-10-13T07:01:33;68766.78;;;16.63;58.31
11692;BME280;33659;42.672;23.354;2023-10-13T07:04:05;68780.28;;;16.73;58.27
11692;BME280;33659;42.672;23.354;2023-10-13T07:06:39;68783.63;;;16.79;57.62
11692;BME280;33659;42.672;23.354;2023-10-13T07:09:08;68783.09;;;16.78;57.25
11692;BME280;33659;42.672;23.354;2023-10-13T07:11:41;68782.56;;;16.78;57.48
11692;BME280;33659;42.672;23.354;2023-10-13T07:14:09;68782.00;;;16.77;57.50
11692;BME280;33659;42.672;23.354;2023-10-13T07:16:42;68788.00;;;16.83;57.63
11692;BME280;33659;42.672;23.354;2023-10-13T07:19:12;68790.28;;;16.88;57.81
11692;BME280;33659;42.672;23.354;2023-10-13T07:21:43;68775.59;;;16.74;57.87
11692;BME280;33659;42.672;23.354;2023-10-13T07:24:11;68804.84;;;16.99;56.95
11692;BME280;33659;42.672;23.354;2023-10-13T07:26:39;68810.75;;;17.02;59.42
11692;BME280;33659;42.672;23.354;2023-10-13T07:29:11;68828.78;;;17.21;57.63
11692;BME280;33659;42.672;23.354;2023-10-13T07:31:39;68841.84;;;17.33;56.40
11692;BME280;33659;42.672;23.354;2023-10-13T07:34:10;68841.28;;;17.33;55.96
11692;BME280;33659;42.672;23.354;2023-10-13T07:36:51;68852.06;;;17.41;55.94
11692;BME280;33659;42.672;23.354;2023-10-13T07:39:19;68859.22;;;17.50;55.97
11692;BME280;33659;42.672;23.354;2023-10-13T07:41:51;68869.66;;;17.62;55.55
11692;BME280;33659;42.672;23.354;2023-10-13T07:44:21;68877.72;;;17.67;55.26
11692;BME280;33659;42.672;23.354;2023-10-13T07:46:53;68879.91;;;17.69;55.11
11692;BME280;33659;42.672;23.354;2023-10-13T07:49:30;68883.19;;;17.72;55.01
11692;BME280;33659;42.672;23.354;2023-10-13T07:51:58;68887.97;;;17.74;55.30
11692;BME280;33659;42.672;23.354;2023-10-13T07:54:32;68890.25;;;17.79;54.97
11692;BME280;33659;42.672;23.354;2023-10-13T07:56:58;68903.66;;;17.86;55.09
11692;BME280;33659;42.672;23.354;2023-10-13T07:59:25;68903.88;;;17.92;54.77
11692;BME280;33659;42.672;23.354;2023-10-13T08:01:55;68909.28;;;17.97;54.53
11692;BME280;33659;42.672;23.354;2023-10-13T08:04:35;68839.03;;;17.97;54.62
11692;BME280;33659;42.672;23.354;2023-10-13T08:07:02;68909.28;;;17.97;55.00
11692;BME280;33659;42.672;23.354;2023-10-13T08:09:38;68904.41;;;17.92;54.49
11692;BME280;33659;42.672;23.354;2023-10-13T08:12:06;68898.88;;;17.84;54.50
11692;BME280;33659;42.672;23.354;2023-10-13T08:14:37;68901.03;;;17.86;54.79
11692;BME280;33659;42.672;23.354;2023-10-13T08:17:07;68911.91;;;17.97;55.08
11692;BME280;33659;42.672;23.354;2023-10-13T08:19:36;68929.88;;;18.13;54.79
11692;BME280;33659;42.672;23.354;2023-10-13T08:22:11;68941.94;;;18.27;54.34
11692;BME280;33659;42.672;23.354;2023-10-13T08:24:51;68943.03;;;18.28;53.66
11692;BME280;33659;42.672;23.354;2023-10-13T08:27:40;68946.31;;;18.31;53.92
11692;BME280;33659;42.672;23.354;2023-10-13T08:30:16;68955.53;;;18.40;54.51
11692;BME280;33659;42.672;23.354;2023-10-13T08:32:55;68969.59;;;18.51;53.36
11692;BME280;33659;42.672;23.354;2023-10-13T08:35:24;68977.22;;;18.58;53.90
11692;BME280;33659;42.672;23.354;2023-10-13T08:38:01;68981.78;;;18.67;53.68
11692;BME280;33659;42.672;23.354;2023-10-13T08:40:30;69001.19;;;18.80;53.59
11692;BME280;33659;42.672;23.354;2023-10-13T08:43:32;69020.91;;;19.01;52.19
11692;BME280;33659;42.672;23.354;2023-10-13T08:46:08;69031.78;;;19.11;51.66
11692;BME280;33659;42.672;23.354;2023-10-13T08:48:52;69007.84;;;18.89;52.56
11692;BME280;33659;42.672;23.354;2023-10-13T08:51:33;69044.22;;;19.20;51.97
11692;BME280;33659;42.672;23.354;2023-10-13T08:54:13;69044.75;;;19.21;51.44
11692;BME280;33659;42.672;23.354;2023-10-13T08:56:59;69046.38;;;19.23;52.20
11692;BME280;33659;42.672;23.354;2023-10-13T08:59:32;69058.38;;;19.34;52.47
11692;BME280;33659;42.672;23.354;2023-10-13T09:02:12;69066.09;;;19.43;52.11
11692;BME280;33659;42.672;23.354;2023-10-13T09:04:45;69086.19;;;19.60;51.03
11692;BME280;33659;42.672;23.354;2023-10-13T09:07:11;69096.50;;;19.69;50.86
11692;BME280;33659;42.672;23.354;2023-10-13T09:09:48;69108.03;;;19.83;51.47
11692;BME280;33659;42.672;23.354;2023-10-13T09:12:37;69131.91;;;20.02;51.30
11692;BME280;33659;42.672;23.354;2023-10-13T09:15:29;69151.00;;;20.20;49.78
11692;BME280;33659;42.672;23.354;2023-10-13T09:18:23;69165.72;;;20.34;49.19
11692;BME280;33659;42.672;23.354;2023-10-13T09:21:08;69171.34;;;20.44;49.10
11692;BME280;33659;42.672;23.354;2023-10-13T09:24:09;69195.25;;;20.64;48.48
11692;BME280;33659;42.672;23.354;2023-10-13T09:26:47;69210.44;;;20.76;48.05
11692;BME280;33659;42.672;23.354;2023-10-13T09:29:19;69235.50;;;20.99;47.83
11692;BME280;33659;42.672;23.354;2023-10-13T09:31:46;69254.03;;;21.17;47.64
11692;BME280;33659;42.672;23.354;2023-10-13T09:34:22;69191.56;;;21.25;46.95
11692;BME280;33659;42.672;23.354;2023-10-13T09:36:50;69198.59;;;21.29;46.52
11692;BME280;33659;42.672;23.354;2023-10-13T09:39:24;69277.59;;;21.41;47.27
11692;BME280;33659;42.672;23.354;2023-10-13T09:42:00;69282.97;;;21.44;47.03
11692;BME280;33659;42.672;23.354;2023-10-13T09:44:29;69214.47;;;21.46;45.60
11692;BME280;33659;42.672;23.354;2023-10-13T09:47:00;69302.06;;;21.61;46.20
11692;BME280;33659;42.672;23.354;2023-10-13T09:49:36;69249.34;;;21.79;45.85
11692;BME280;33659;42.672;23.354;2023-10-13T09:52:14;69328.78;;;21.86;45.56
11692;BME280;33659;42.672;23.354;2023-10-13T09:54:51;69261.34;;;21.90;45.71
11692;BME280;33659;42.672;23.354;2023-10-13T09:57:28;69268.34;;;21.94;44.16
11692;BME280;33659;42.672;23.354;2023-10-13T10:00:05;69330.41;;;21.88;45.25
11692;BME280;33659;42.672;23.354;2023-10-13T10:02:34;69334.78;;;21.92;45.21
11692;BME280;33659;42.672;23.354;2023-10-13T10:05:08;69359.91;;;22.15;45.08
11692;BME280;33659;42.672;23.354;2023-10-13T10:07:39;69388.84;;;22.42;43.96
11692;BME280;33659;42.672;23.354;2023-10-13T10:10:09;69428.66;;;22.80;43.56
11692;BME280;33659;42.672;23.354;2023-10-13T10:12:41;69461.44;;;23.10;42.88
11692;BME280;33659;42.672;23.354;2023-10-13T10:15:23;69415.19;;;23.36;42.19
11692;BME280;33659;42.672;23.354;2023-10-13T10:17:56;69426.72;;;23.49;41.11
11692;BME280;33659;42.672;23.354;2023-10-13T10:20:29;69530.81;;;23.75;41.11
11692;BME280;33659;42.672;23.354;2023-10-13T10:23:07;69481.72;;;23.96;39.52
11692;BME280;33659;42.672;23.354;2023-10-13T10:25:40;69506.78;;;24.19;38.92
11692;BME280;33659;42.672;23.354;2023-10-13T10:28:10;69522.09;;;24.34;38.04
11692;BME280;33659;42.672;23.354;2023-10-13T10:30:41;69537.47;;;24.50;35.99
11692;BME280;33659;42.672;23.354;2023-10-13T10:33:10;69553.38;;;24.68;36.90
11692;BME280;33659;42.672;23.354;2023-10-13T10:35:40;69647.69;;;24.81;36.97
11692;BME280;33659;42.672;23.354;2023-10-13T10:38:10;69590.88;;;24.98;35.46
11692;BME280;33659;42.672;23.354;2023-10-13T10:40:51;69601.91;;;25.10;37.40
11692;BME280;33659;42.672;23.354;2023-10-13T10:43:23;69619.38;;;25.27;36.57
11692;BME280;33659;42.672;23.354;2023-10-13T10:45:52;69636.78;;;25.41;36.60
11692;BME280;33659;42.672;23.354;2023-10-13T10:48:25;69655.25;;;25.55;35.45
11692;BME280;33659;42.672;23.354;2023-10-13T10:50:57;69656.91;;;25.57;34.42
11692;BME280;33659;42.672;23.354;2023-10-13T10:53:34;69652.06;;;25.55;34.41
11692;BME280;33659;42.672;23.354;2023-10-13T10:56:09;69656.50;;;25.61;34.04
11692;BME280;33659;42.672;23.354;2023-10-13T10:58:46;69676.03;;;25.75;34.33
11692;BME280;33659;42.672;23.354;2023-10-13T11:01:13;69678.25;;;25.77;33.63
11692;BME280;33659;42.672;23.354;2023-10-13T11:03:53;69662.13;;;25.72;34.36
11692;BME280;33659;42.672;23.354;2023-10-13T11:06:22;69741.72;;;25.69;34.35
11692;BME280;33659;42.672;23.354;2023-10-13T11:09:02;69654.72;;;25.55;34.02
11692;BME280;33659;42.672;23.354;2023-10-13T11:11:33;69652.22;;;25.60;33.83
11692;BME280;33659;42.672;23.354;2023-10-13T11:14:01;69665.66;;;25.65;34.01
11692;BME280;33659;42.672;23.354;2023-10-13T11:16:45;69691.34;;;25.89;33.24
11692;BME280;33659;42.672;23.354;2023-10-13T11:19:17;69702.97;;;26.05;33.26
11692;BME280;33659;42.672;23.354;2023-10-13T11:21:46;69729.09;;;26.27;33.13
11692;BME280;33659;42.672;23.354;2023-10-13T11:24:15;69824.34;;;26.46;32.26
11692;BME280;33659;42.672;23.354;2023-10-13T11:26:43;69748.47;;;26.52;32.98
11692;BME280;33659;42.672;23.354;2023-10-13T11:29:15;69779.38;;;26.91;32.62
11692;BME280;33659;42.672;23.354;2023-10-13T11:31:45;69821.44;;;27.10;32.07
11692;BME280;33659;42.672;23.354;2023-10-13T11:34:19;69843.53;;;27.38;32.30
11692;BME280;33659;42.672;23.354;2023-10-13T11:36:45;69863.84;;;27.60;31.01
11692;BME280;33659;42.672;23.354;2023-10-13T11:39:12;69873.88;;;27.57;30.57
11692;BME280;33659;42.672;23.354;2023-10-13T11:41:45;69832.53;;;27.25;30.72
11692;BME280;33659;42.672;23.354;2023-10-13T11:44:20;69820.91;;;27.10;30.82
11692;BME280;33659;42.672;23.354;2023-10-13T11:46:51;69832.94;;;27.21;32.83
11692;BME280;33659;42.672;23.354;2023-10-13T11:49:53;69854.47;;;27.48;34.12
11692;BME280;33659;42.672;23.354;2023-10-13T11:52:23;69881.59;;;27.66;31.96
11692;BME280;33659;42.672;23.354;2023-10-13T11:54:51;69863.44;;;27.64;31.17
11692;BME280;33659;42.672;23.354;2023-10-13T11:57:19;69868.06;;;27.59;31.45
11692;BME280;33659;42.672;23.354;2023-10-13T11:59:47;69856.78;;;27.56;30.41
11692;BME280;33659;42.672;23.354;2023-10-13T12:02:21;69854.31;;;27.43;30.15
11692;BME280;33659;42.672;23.354;2023-10-13T12:05:06;69830.13;;;27.16;30.85
11692;BME280;33659;42.672;23.354;2023-10-13T12:07:38;69843.22;;;27.45;30.40
11692;BME280;33659;42.672;23.354;2023-10-13T12:10:17;69942.03;;;27.56;29.87
11692;BME280;33659;42.672;23.354;2023-10-13T12:12:59;69872.19;;;27.72;29.94
11692;BME280;33659;42.672;23.354;2023-10-13T12:15:32;69893.59;;;27.75;30.43
11692;BME280;33659;42.672;23.354;2023-10-13T12:18:14;69901.31;;;27.85;30.89
11692;BME280;33659;42.672;23.354;2023-10-13T12:20:41;69909.53;;;27.92;30.99
11692;BME280;33659;42.672;23.354;2023-10-13T12:23:11;69923.13;;;28.02;29.83
11692;BME280;33659;42.672;23.354;2023-10-13T12:25:43;69911.44;;;28.04;30.15
11692;BME280;33659;42.672;23.354;2023-10-13T12:28:26;69918.56;;;28.11;29.35
11692;BME280;33659;42.672;23.354;2023-10-13T12:30:55;69925.72;;;28.20;29.24
11692;BME280;33659;42.672;23.354;2023-10-13T12:33:23;69938.31;;;28.31;31.10
11692;BME280;33659;42.672;23.354;2023-10-13T12:35:56;69962.06;;;28.41;30.11
11692;BME280;33659;42.672;23.354;2023-10-13T12:38:33;69945.56;;;28.43;30.41
11692;BME280;33659;42.672;23.354;2023-10-13T12:41:38;69964.53;;;28.53;30.37
11692;BME280;33659;42.672;23.354;2023-10-13T12:44:24;69985.44;;;28.58;30.79
11692;BME280;33659;42.672;23.354;2023-10-13T12:47:08;69994.28;;;28.69;29.29
11692;BME280;33659;42.672;23.354;2023-10-13T12:49:52;69983.41;;;28.81;29.48
11692;BME280;33659;42.672;23.354;2023-10-13T12:52:25;70022.81;;;28.98;31.70
11692;BME280;33659;42.672;23.354;2023-10-13T12:54:52;70040.41;;;29.17;28.12
11692;BME280;33659;42.672;23.354;2023-10-13T12:57:31;70051.63;;;29.37;28.56
11692;BME280;33659;42.672;23.354;2023-10-13T13:00:00;70102.09;;;29.66;28.63
11692;BME280;33659;42.672;23.354;2023-10-13T13:02:41;70104.13;;;29.83;27.44
11692;BME280;33659;42.672;23.354;2023-10-13T13:05:08;70125.59;;;30.08;28.10
11692;BME280;33659;42.672;23.354;2023-10-13T13:07:38;70158.38;;;30.34;28.32
11692;BME280;33659;42.672;23.354;2023-10-13T13:10:12;70171.06;;;30.51;26.82
11692;BME280;33659;42.672;23.354;2023-10-13T13:12:39;70186.16;;;30.55;26.25
11692;BME280;33659;42.672;23.354;2023-10-13T13:15:08;70175.34;;;30.50;27.57
11692;BME280;33659;42.672;23.354;2023-10-13T13:17:35;70169.78;;;30.42;29.06
11692;BME280;33659;42.672;23.354;2023-10-13T13:20:05;70164.91;;;30.40;29.89
11692;BME280;33659;42.672;23.354;2023-10-13T13:22:37;70149.81;;;30.13;27.27
11692;BME280;33659;42.672;23.354;2023-10-13T13:25:05;70113.47;;;29.94;27.32
11692;BME280;33659;42.672;23.354;2023-10-13T13:27:34;70101.03;;;29.88;29.97